.
WxDataArchive / Data Records for 2008-11-06
2008-11-05 November 2008 2008-11-07

Data Records for Thursday, 06 November 2008

Time	Temp	Chill	HIndex	Humid	Dewpt	 Wind 	HiWind	WindDir	Rain 	Barom 
-----	----	-----	------	-----	-----	------	------	-------	-----	----- 
00:00	44.2	44.2	44.2	81	38.7	0	0	---	0.00	29.963 
00:05	44.1	44.1	44.1	81	38.6	0	0	---	0.00	29.962 
00:10	43.9	43.9	43.9	81	38.5	0	0	---	0.00	29.962 
00:15	43.8	43.8	43.8	82	38.7	0	0	---	0.00	29.962 
00:20	43.5	43.5	43.5	82	38.4	0	0	---	0.00	29.962 
00:25	43.3	43.3	43.3	82	38.2	0	0	---	0.00	29.961 
00:30	43.2	43.2	43.2	83	38.4	0	0	---	0.00	29.960 
00:35	43.1	43.1	43.1	83	38.3	0	0	---	0.00	29.961 
00:40	42.9	42.9	42.9	83	38.1	0	0	---	0.00	29.960 
00:45	42.8	42.8	42.8	84	38.3	0	0	---	0.00	29.956 
00:50	42.8	42.8	42.8	84	38.3	0	0	---	0.00	29.958 
00:55	42.6	42.6	42.6	84	38.1	0	0	---	0.00	29.958 
01:00	42.6	42.6	42.6	84	38.1	0	0	---	0.00	29.957 
01:05	42.5	42.5	42.5	84	38.0	0	0	---	0.00	29.954 
01:10	42.5	42.5	42.5	85	38.3	0	0	---	0.00	29.952 
01:15	42.3	42.3	42.3	85	38.1	0	0	---	0.00	29.951 
01:20	42.3	42.3	42.3	85	38.1	0	0	---	0.00	29.950 
01:25	42.2	42.2	42.2	85	38.0	0	0	---	0.00	29.949 
01:30	42.1	42.1	42.1	85	37.9	0	0	---	0.00	29.951 
01:35	42.1	42.1	42.1	85	37.9	0	0	---	0.00	29.951 
01:40	41.9	41.9	41.9	86	38.0	0	0	---	0.00	29.950 
01:45	41.9	41.9	41.9	86	38.0	0	0	---	0.00	29.950 
01:50	41.8	41.8	41.8	86	37.9	0	0	---	0.00	29.950 
01:55	41.8	41.8	41.8	87	38.2	0	0	---	0.00	29.954 
02:00	41.8	41.8	41.8	87	38.2	0	0	---	0.00	29.954 
02:05	41.6	41.6	41.6	87	38.0	0	0	---	0.00	29.953 
02:10	41.6	41.6	41.6	86	37.7	0	0	---	0.00	29.954 
02:15	41.5	41.5	41.5	87	37.9	0	0	---	0.00	29.959 
02:20	41.3	41.3	41.3	87	37.7	0	0	---	0.00	29.958 
02:25	41.2	41.2	41.2	87	37.6	0	0	---	0.00	29.958 
02:30	41.2	41.2	41.2	87	37.6	0	0	---	0.00	29.959 
02:35	41.2	41.2	41.2	87	37.6	0	0	---	0.00	29.961 
02:40	41.2	41.2	41.2	87	37.6	0	0	---	0.00	29.960 
02:45	41.2	41.2	41.2	87	37.6	0	0	---	0.00	29.959 
02:50	41.1	41.1	41.1	87	37.5	0	0	---	0.00	29.955 
02:55	41.1	41.1	41.1	87	37.5	0	0	---	0.00	29.955 
03:00	40.9	40.9	40.9	87	37.3	0	0	---	0.00	29.952 
03:05	40.8	40.8	40.8	87	37.2	0	0	---	0.00	29.952 
03:10	40.8	40.8	40.8	88	37.5	0	0	---	0.00	29.951 
03:15	40.6	40.6	40.6	88	37.3	0	0	---	0.00	29.953 
03:20	40.5	40.5	40.5	88	37.2	0	0	---	0.00	29.952 
03:25	40.3	40.3	40.3	88	37.0	0	0	---	0.00	29.954 
03:30	40.2	40.2	40.2	88	36.9	0	0	---	0.00	29.952 
03:35	40.1	40.1	40.1	88	36.8	0	0	---	0.00	29.950 
03:40	39.9	39.9	39.9	88	36.6	0	0	---	0.00	29.950 
03:45	39.8	39.8	39.8	88	36.5	0	0	---	0.00	29.950 
03:50	39.6	39.6	39.6	88	36.3	0	0	---	0.00	29.950 
03:55	39.6	39.6	39.6	89	36.6	0	0	---	0.00	29.950 
04:00	39.6	39.6	39.6	89	36.6	0	0	---	0.00	29.949 
04:05	39.6	39.6	39.6	90	36.9	0	0	---	0.00	29.951 
04:10	39.5	39.5	39.5	90	36.8	0	0	---	0.00	29.952 
04:15	39.3	39.3	39.3	90	36.6	0	0	---	0.00	29.951 
04:20	39.3	39.3	39.3	90	36.6	0	0	---	0.00	29.953 
04:25	39.3	39.3	39.3	90	36.6	0	0	---	0.00	29.953 
04:30	39.3	39.3	39.3	91	36.9	0	0	---	0.00	29.952 
04:35	39.3	39.3	39.3	91	36.9	0	0	---	0.00	29.953 
04:40	39.3	39.3	39.3	91	36.9	0	0	---	0.00	29.952 
04:45	39.3	39.3	39.3	91	36.9	0	0	---	0.00	29.952 
04:50	39.2	39.2	39.2	91	36.8	0	0	---	0.00	29.951 
04:55	39.2	39.2	39.2	91	36.8	0	0	---	0.00	29.952 
05:00	39.2	39.2	39.2	92	37.1	0	0	---	0.00	29.952 
05:05	39.1	39.1	39.1	92	37.0	0	0	---	0.00	29.957 
05:10	39.1	39.1	39.1	92	37.0	0	0	---	0.00	29.959 
05:15	38.9	38.9	38.9	92	36.8	0	0	---	0.00	29.959 
05:20	38.8	38.8	38.8	92	36.7	0	0	---	0.00	29.960 
05:25	38.6	38.6	38.6	92	36.5	0	0	---	0.00	29.960 
05:30	38.6	38.6	38.6	92	36.5	0	0	---	0.00	29.960 
05:35	38.6	38.6	38.6	92	36.5	0	0	---	0.00	29.958 
05:40	38.6	38.6	38.6	92	36.5	0	0	---	0.00	29.957 
05:45	38.5	38.5	38.5	92	36.4	0	0	---	0.00	29.957 
05:50	38.5	38.5	38.5	92	36.4	0	0	---	0.00	29.956 
05:55	38.5	38.5	38.5	92	36.4	0	0	---	0.00	29.956 
06:00	38.6	38.6	38.6	93	36.8	0	1	112	0.00	29.956 
06:05	38.8	38.8	38.8	93	37.0	0	0	---	0.00	29.963 
06:10	38.9	38.9	38.9	93	37.1	0	0	---	0.00	29.963 
06:15	38.9	38.9	38.9	93	37.1	0	0	---	0.00	29.964 
06:20	38.9	38.9	38.9	93	37.1	0	0	---	0.00	29.964 
06:25	38.8	38.8	38.8	93	37.0	0	0	---	0.00	29.963 
06:30	38.8	38.8	38.8	93	37.0	0	0	---	0.00	29.963 
06:35	38.9	38.9	38.9	93	37.1	0	1	112	0.00	29.962 
06:40	39.3	39.3	39.3	93	37.4	0	1	112	0.00	29.962 
06:45	39.5	39.5	39.5	93	37.6	0	0	---	0.00	29.961 
06:50	39.5	39.5	39.5	92	37.4	0	0	---	0.00	29.962 
06:55	39.5	39.5	39.5	92	37.4	0	1	112	0.00	29.962 
07:00	39.3	39.3	39.3	92	37.2	0	1	112	0.00	29.963 
07:05	39.3	39.3	39.3	92	37.2	0	1	112	0.00	29.967 
07:10	39.6	39.6	39.6	92	37.5	0	1	112	0.00	29.967 
07:15	39.8	39.8	39.8	92	37.7	0	0	---	0.00	29.967 
07:20	40.1	40.1	40.1	92	38.0	0	1	112	0.00	29.965 
07:25	40.2	40.2	40.2	92	38.1	0	0	---	0.00	29.967 
07:30	40.2	40.2	40.2	91	37.8	0	1	112	0.00	29.967 
07:35	40.2	40.2	40.2	91	37.8	0	1	112	0.00	29.968 
07:40	40.3	40.3	40.3	91	37.9	0	1	158	0.00	29.968 
07:45	40.8	40.8	40.8	91	38.4	0	1	158	0.00	29.968 
07:50	41.1	41.1	41.1	91	38.7	0	1	158	0.00	29.970 
07:55	41.8	41.8	41.8	90	39.1	0	1	158	0.00	29.971 
08:00	42.5	42.5	42.5	89	39.5	0	1	158	0.00	29.976 
08:05	43.3	43.3	43.3	88	40.0	0	1	90	0.00	29.980 
08:10	44.3	44.3	44.3	86	40.4	0	1	90	0.00	29.980 
08:15	45.2	45.2	45.2	83	40.3	0	1	90	0.00	29.980 
08:20	46.1	46.1	46.1	81	40.6	0	1	90	0.00	29.977 
08:25	46.8	46.8	46.8	80	41.0	0	0	---	0.00	29.977 
08:30	47.7	47.7	47.7	77	40.8	0	1	90	0.00	29.974 
08:35	48.6	48.6	48.6	75	41.0	0	1	90	0.00	29.974 
08:40	49.4	49.4	49.4	74	41.5	0	1	90	0.00	29.974 
08:45	49.9	49.9	49.9	73	41.6	0	1	90	0.00	29.974 
08:50	50.7	50.7	50.7	71	41.6	0	1	90	0.00	29.975 
08:55	51.3	51.3	51.3	70	41.9	0	1	90	0.00	29.974 
09:00	51.7	51.7	51.7	69	41.9	0	1	90	0.00	29.972 
09:05	52.3	52.3	52.3	69	42.4	0	1	90	0.00	29.974 
09:10	52.8	52.8	52.8	67	42.1	0	1	90	0.00	29.973 
09:15	53.3	53.3	53.3	67	42.6	0	0	---	0.00	29.974 
09:20	54.1	54.1	54.1	66	43.0	0	1	90	0.00	29.974 
09:25	55.0	55.0	55.0	65	43.5	0	2	90	0.00	29.972 
09:30	55.4	55.4	55.4	66	44.2	0	2	90	0.00	29.971 
09:35	55.9	55.9	55.9	65	44.3	0	1	90	0.00	29.971 
09:40	56.5	56.5	56.5	64	44.5	0	1	90	0.00	29.971 
09:45	57.2	57.2	57.2	63	44.7	0	1	90	0.00	29.968 
09:50	58.0	58.0	58.0	62	45.1	0	2	90	0.00	29.967 
09:55	58.7	58.7	58.7	62	45.7	0	2	90	0.00	29.965 
10:00	59.3	59.3	59.3	61	45.8	0	1	90	0.00	29.957 
10:05	60.2	60.2	60.2	58	45.4	1	3	90	0.00	29.955 
10:10	61.2	61.2	61.2	55	44.9	1	3	90	0.00	29.956 
10:15	62.0	62.0	62.0	54	45.2	0	3	90	0.00	29.952 
10:20	62.7	62.7	62.7	50	43.8	1	3	112	0.00	29.952 
10:25	63.4	63.4	63.4	50	44.4	1	5	90	0.00	29.951 
10:30	63.9	63.9	63.9	50	44.9	1	4	112	0.00	29.949 
10:35	64.3	64.3	64.3	50	45.3	1	4	158	0.00	29.948 
10:40	64.7	64.7	64.7	48	44.6	1	3	112	0.00	29.946 
10:45	65.2	65.2	65.2	47	44.5	1	4	112	0.00	29.947 
10:50	65.6	65.6	65.6	48	45.4	0	5	90	0.00	29.946 
10:55	66.0	66.0	66.0	44	43.5	1	5	90	0.00	29.945 
11:00	66.4	66.4	66.4	46	45.0	2	6	90	0.00	29.946 
11:05	66.6	66.6	66.6	44	44.0	2	5	90	0.00	29.947 
11:10	66.9	66.9	66.9	43	43.7	1	5	112	0.00	29.946 
11:15	67.3	67.3	67.3	43	44.0	1	5	22	0.00	29.943 
11:20	67.6	67.6	67.6	43	44.3	1	4	112	0.00	29.943 
11:25	67.9	67.9	67.9	41	43.3	1	7	90	0.00	29.938 
11:30	68.1	68.1	68.1	42	44.1	2	5	22	0.00	29.936 
11:35	68.4	68.4	68.4	40	43.1	2	5	90	0.00	29.933 
11:40	68.4	68.4	68.4	41	43.8	2	6	90	0.00	29.933 
11:45	68.3	68.3	68.3	43	44.9	2	6	68	0.00	29.932 
11:50	68.3	68.3	68.3	43	44.9	2	6	68	0.00	29.931 
11:55	68.6	68.6	68.6	42	44.6	3	6	90	0.00	29.929 
12:00	68.9	68.9	68.9	42	44.9	1	6	292	0.00	29.927 
12:05	69.1	69.1	69.1	41	44.4	2	11	112	0.00	29.926 
12:10	69.4	69.4	69.4	42	45.3	1	3	292	0.00	29.920 
12:15	69.6	69.6	69.6	40	44.2	2	6	112	0.00	29.916 
12:20	69.9	69.9	69.9	39	43.8	1	4	90	0.00	29.916 
12:25	70.1	70.1	70.1	40	44.6	1	5	45	0.00	29.914 
12:30	70.1	70.1	70.1	38	43.3	1	4	90	0.00	29.911 
12:35	70.4	70.4	70.4	37	42.9	3	12	112	0.00	29.911 
12:40	70.3	70.3	70.3	38	43.5	2	6	112	0.00	29.909 
12:45	70.3	70.3	70.3	38	43.5	2	6	112	0.00	29.903 
12:50	70.3	70.3	70.3	39	44.2	2	7	90	0.00	29.901 
12:55	70.3	70.3	70.3	38	43.5	2	5	22	0.00	29.900 
13:00	70.4	70.4	70.4	38	43.6	1	6	22	0.00	29.900 
13:05	70.6	70.6	70.6	37	43.1	2	5	90	0.00	29.900 
13:10	70.6	70.6	70.6	37	43.1	2	9	270	0.00	29.900 
13:15	70.8	70.8	70.8	38	43.9	1	4	45	0.00	29.899 
13:20	70.8	70.8	70.8	36	42.5	2	9	90	0.00	29.899 
13:25	70.6	70.6	70.6	36	42.3	3	6	90	0.00	29.893 
13:30	70.8	70.8	70.8	36	42.5	3	6	90	0.00	29.894 
13:35	71.1	71.1	71.1	39	44.9	2	7	90	0.00	29.889 
13:40	71.6	71.6	71.6	36	43.2	2	5	45	0.00	29.885 
13:45	72.0	72.0	72.0	37	44.3	2	6	270	0.00	29.883 
13:50	72.0	72.0	72.0	34	42.1	2	9	112	0.00	29.882 
13:55	72.1	72.1	72.1	34	42.2	1	4	68	0.00	29.873 
14:00	72.1	72.1	72.1	35	42.9	1	4	292	0.00	29.872 
14:05	72.0	72.0	72.0	35	42.8	1	5	68	0.00	29.869 
14:10	72.0	72.0	72.0	35	42.8	2	6	112	0.00	29.864 
14:15	71.8	71.8	71.8	34	41.9	2	6	90	0.00	29.866 
14:20	71.8	71.8	71.8	34	41.9	2	6	112	0.00	29.866 
14:25	71.6	71.6	71.6	34	41.7	2	5	90	0.00	29.867 
14:30	71.6	71.6	71.6	34	41.7	1	4	90	0.00	29.865 
14:35	71.8	71.8	71.8	34	41.9	2	5	90	0.00	29.863 
14:40	71.8	71.8	71.8	33	41.1	2	6	90	0.00	29.860 
14:45	72.0	72.0	72.0	33	41.3	1	7	112	0.00	29.856 
14:50	72.0	72.0	72.0	33	41.3	2	6	90	0.00	29.853 
14:55	72.0	72.0	72.0	34	42.1	2	9	135	0.00	29.857 
15:00	72.1	72.1	72.1	33	41.4	3	11	68	0.00	29.856 
15:05	72.1	72.1	72.1	31	39.8	4	10	90	0.00	29.857 
15:10	72.3	72.3	72.3	31	40.0	3	8	90	0.00	29.853 
15:15	72.3	72.3	72.3	32	40.8	3	9	90	0.00	29.852 
15:20	72.3	72.3	72.3	33	41.6	3	10	68	0.00	29.851 
15:25	72.3	72.3	72.3	32	40.8	3	9	68	0.00	29.851 
15:30	72.1	72.1	72.1	33	41.4	3	9	90	0.00	29.853 
15:35	72.1	72.1	72.1	32	40.6	3	11	68	0.00	29.853 
15:40	72.0	72.0	72.0	32	40.5	3	8	68	0.00	29.854 
15:45	71.8	71.8	71.8	34	41.9	2	5	68	0.00	29.853 
15:50	71.6	71.6	71.6	33	41.0	3	9	112	0.00	29.853 
15:55	71.5	71.5	71.5	34	41.6	2	5	90	0.00	29.852 
16:00	71.5	71.5	71.5	34	41.6	2	5	90	0.00	29.852 
16:05	71.3	71.3	71.3	35	42.2	2	7	68	0.00	29.853 
16:10	70.9	70.9	70.9	35	41.9	1	3	112	0.00	29.854 
16:15	70.8	70.8	70.8	35	41.8	2	5	90	0.00	29.854 
16:20	70.4	70.4	70.4	36	42.2	1	3	135	0.00	29.853 
16:25	70.3	70.3	70.3	36	42.1	1	2	135	0.00	29.853 
16:30	69.9	69.9	69.9	36	41.7	1	2	112	0.00	29.854 
16:35	69.8	69.8	69.8	35	40.9	1	5	112	0.00	29.856 
16:40	69.8	69.8	69.8	35	40.9	2	7	112	0.00	29.856 
16:45	69.8	69.8	69.8	34	40.2	1	4	112	0.00	29.857 
16:50	69.9	69.9	69.9	33	39.5	2	4	112	0.00	29.856 
16:55	69.8	69.8	69.8	33	39.4	2	6	112	0.00	29.855 
17:00	69.6	69.6	69.6	34	40.0	2	7	112	0.00	29.856 
17:05	69.3	69.3	69.3	35	40.5	1	4	112	0.00	29.855 
17:10	68.9	68.9	68.9	36	40.8	2	9	112	0.00	29.850 
17:15	68.6	68.6	68.6	36	40.6	1	3	112	0.00	29.848 
17:20	68.3	68.3	68.3	37	41.0	1	4	90	0.00	29.853 
17:25	67.9	67.9	67.9	37	40.7	0	2	90	0.00	29.858 
17:30	67.6	67.6	67.6	39	41.8	0	2	112	0.00	29.856 
17:35	67.1	67.1	67.1	39	41.3	0	2	112	0.00	29.856 
17:40	66.4	66.4	66.4	40	41.3	0	2	112	0.00	29.856 
17:45	66.1	66.1	66.1	41	41.7	0	3	112	0.00	29.859 
17:50	65.6	65.6	65.6	42	41.9	0	2	112	0.00	29.860 
17:55	65.3	65.3	65.3	42	41.6	1	3	135	0.00	29.859 
18:00	65.2	65.2	65.2	43	42.1	0	2	135	0.00	29.858 
18:05	65.0	65.0	65.0	43	42.0	0	2	135	0.00	29.859 
18:10	64.7	64.7	64.7	44	42.3	0	2	135	0.00	29.856 
18:15	64.3	64.3	64.3	45	42.5	0	2	135	0.00	29.853 
18:20	64.0	64.0	64.0	45	42.2	0	4	90	0.00	29.856 
18:25	63.7	63.7	63.7	46	42.5	0	2	90	0.00	29.858 
18:30	63.5	63.5	63.5	46	42.3	0	2	90	0.00	29.861 
18:35	63.4	63.4	63.4	46	42.3	0	2	90	0.00	29.860 
18:40	63.2	63.2	63.2	46	42.1	0	2	112	0.00	29.861 
18:45	63.2	63.2	63.2	46	42.1	0	3	112	0.00	29.862 
18:50	63.4	63.4	63.4	46	42.3	1	3	112	0.00	29.860 
18:55	63.4	63.4	63.4	46	42.3	0	2	112	0.00	29.859 
19:00	63.5	63.5	63.5	46	42.3	0	2	112	0.00	29.859 
19:05	63.5	63.5	63.5	46	42.3	0	1	112	0.00	29.853 
19:10	63.5	63.5	63.5	46	42.3	0	1	112	0.00	29.849 
19:15	63.4	63.4	63.4	46	42.3	0	2	112	0.00	29.847 
19:20	63.5	63.5	63.5	46	42.3	0	2	112	0.00	29.846 
19:25	63.5	63.5	63.5	46	42.3	0	2	112	0.00	29.844 
19:30	63.5	63.5	63.5	46	42.3	0	2	112	0.00	29.844 
19:35	63.5	63.5	63.5	46	42.3	0	2	112	0.00	29.844 
19:40	63.5	63.5	63.5	47	42.9	1	4	135	0.00	29.842 
19:45	63.5	63.5	63.5	46	42.3	0	2	112	0.00	29.840 
19:50	63.5	63.5	63.5	46	42.3	0	2	112	0.00	29.840 
19:55	63.5	63.5	63.5	46	42.3	0	2	112	0.00	29.835 
20:00	63.5	63.5	63.5	46	42.3	0	2	112	0.00	29.833 
20:05	63.5	63.5	63.5	46	42.3	0	2	112	0.00	29.823 
20:10	63.7	63.7	63.7	45	42.0	1	2	112	0.00	29.826 
20:15	63.9	63.9	63.9	45	42.1	1	3	112	0.00	29.826 
20:20	64.0	64.0	64.0	46	42.8	1	2	135	0.00	29.824 
20:25	63.9	63.9	63.9	46	42.7	0	2	112	0.00	29.822 
20:30	63.9	63.9	63.9	46	42.7	0	2	112	0.00	29.823 
20:35	63.9	63.9	63.9	46	42.7	1	2	112	0.00	29.821 
20:40	63.7	63.7	63.7	46	42.5	0	1	135	0.00	29.821 
20:45	63.7	63.7	63.7	46	42.5	0	1	135	0.00	29.821 
20:50	63.7	63.7	63.7	46	42.5	0	2	135	0.00	29.820 
20:55	63.7	63.7	63.7	47	43.1	0	2	135	0.00	29.819 
21:00	63.7	63.7	63.7	46	42.5	1	4	135	0.00	29.819 
21:05	63.7	63.7	63.7	46	42.5	0	1	90	0.00	29.814 
21:10	63.9	63.9	63.9	45	42.1	0	2	135	0.00	29.814 
21:15	64.0	64.0	64.0	45	42.2	1	3	112	0.00	29.815 
21:20	64.2	64.2	64.2	45	42.4	1	2	68	0.00	29.815 
21:25	64.3	64.3	64.3	44	41.9	1	4	112	0.00	29.817 
21:30	64.5	64.5	64.5	45	42.7	1	3	90	0.00	29.815 
21:35	64.5	64.5	64.5	44	42.1	1	4	90	0.00	29.815 
21:40	64.5	64.5	64.5	45	42.7	1	3	90	0.00	29.821 
21:45	64.5	64.5	64.5	44	42.1	1	4	112	0.00	29.824 
21:50	64.5	64.5	64.5	45	42.7	0	3	112	0.00	29.826 
21:55	64.5	64.5	64.5	48	44.4	1	2	270	0.00	29.830 
22:00	64.2	64.2	64.2	49	44.6	1	5	270	0.00	29.828 
22:05	63.9	63.9	63.9	50	44.9	1	4	135	0.00	29.822 
22:10	63.7	63.7	63.7	51	45.2	2	12	90	0.00	29.825 
22:15	63.7	63.7	63.7	52	45.7	2	9	90	0.00	29.823 
22:20	63.4	63.4	63.4	54	46.5	2	5	90	0.00	29.820 
22:25	63.2	63.2	63.2	55	46.8	1	4	112	0.00	29.814 
22:30	62.9	62.9	62.9	57	47.4	0	3	90	0.00	29.811 
22:35	62.6	62.6	62.6	58	47.6	0	3	90	0.00	29.811 
22:40	62.3	62.3	62.3	58	47.3	0	1	90	0.00	29.811 
22:45	62.1	62.1	62.1	59	47.6	0	1	90	0.00	29.814 
22:50	61.8	61.8	61.8	58	46.9	0	1	90	0.00	29.810 
22:55	61.6	61.6	61.6	58	46.7	0	1	90	0.00	29.810 
23:00	61.6	61.6	61.6	57	46.2	0	2	112	0.00	29.809 
23:05	61.8	61.8	61.8	57	46.4	0	1	112	0.00	29.807 
23:10	61.6	61.6	61.6	58	46.7	0	1	112	0.00	29.806 
23:15	61.6	61.6	61.6	58	46.7	0	0	---	0.00	29.807 
23:20	61.5	61.5	61.5	58	46.6	0	0	---	0.00	29.808 
23:25	61.3	61.3	61.3	59	46.8	0	0	---	0.00	29.808 
23:30	61.2	61.2	61.2	59	46.8	0	0	---	0.00	29.808 
23:35	61.0	61.0	61.0	59	46.6	0	0	---	0.00	29.807 
23:40	60.9	60.9	60.9	59	46.5	0	0	---	0.00	29.808 
23:45	60.7	60.7	60.7	60	46.7	0	0	---	0.00	29.810 
23:50	60.5	60.5	60.5	60	46.5	0	0	---	0.00	29.812 
23:55	60.4	60.4	60.4	61	46.9	0	0	---	0.00	29.812 

CoCoRaHS
IN-AL-39
A2 Web Hosting
Creative Commons License
GoDaddy
Look for:

loaded 2017-10-17 09:18:48 • last modified 2010-11-18 10:43:29
Privacy PolicyDisclaimer
• wx.awcolley.com is powered by PmWiki v.2002016 •
• all content (unless otherwise noted) © 2017 A W Colley